createdAt,value
2023-05-12T00:00:32.112Z,47.80
2023-05-12T00:01:33.004Z,47.50
2023-05-12T00:02:33.982Z,49.90
2023-05-12T00:03:34.715Z,49.60
2023-05-12T00:04:35.240Z,49.90
2023-05-12T00:05:36.131Z,46.90
2023-05-12T00:06:37.025Z,45.60
2023-05-12T00:07:37.919Z,45.50
2023-05-12T00:08:38.786Z,42.10
2023-05-12T00:09:39.691Z,41.60
2023-05-12T00:10:40.601Z,41.30
2023-05-12T00:11:41.488Z,40.90
2023-05-12T00:12:42.391Z,38.80
2023-05-12T00:13:43.426Z,36.80
2023-05-12T00:14:43.900Z,37.50
2023-05-12T00:15:44.793Z,39.00
2023-05-12T00:16:45.720Z,39.10
2023-05-12T00:17:46.634Z,39.60
2023-05-12T00:18:47.604Z,38.00
2023-05-12T00:19:48.491Z,40.50
2023-05-12T00:20:49.429Z,38.00
2023-05-12T00:21:50.372Z,37.20
2023-05-12T00:22:51.256Z,37.60
2023-05-12T00:23:52.197Z,38.10
2023-05-12T00:24:53.104Z,42.70
2023-05-12T00:25:54.010Z,37.70
2023-05-12T00:26:54.885Z,36.10
2023-05-12T00:27:55.787Z,46.10
2023-05-12T00:28:56.703Z,41.50
2023-05-12T00:29:57.597Z,42.50
2023-05-12T00:30:58.479Z,43.30
2023-05-12T00:31:59.431Z,40.90
2023-05-12T00:33:00.382Z,44.30
2023-05-12T00:34:00.837Z,39.80
2023-05-12T00:35:01.722Z,42.20
2023-05-12T00:36:02.612Z,39.00
2023-05-12T00:37:03.508Z,39.80
2023-05-12T00:38:04.400Z,42.70
2023-05-12T00:39:05.373Z,40.60
2023-05-12T00:40:06.309Z,46.80
2023-05-12T00:41:07.208Z,45.40
2023-05-12T00:42:08.169Z,39.30
2023-05-12T00:43:09.085Z,45.80
2023-05-12T00:44:09.976Z,44.30
2023-05-12T00:45:10.879Z,42.30
2023-05-12T00:46:11.814Z,46.60
2023-05-12T00:47:12.711Z,45.60
2023-05-12T00:48:13.610Z,47.30
2023-05-12T00:49:14.496Z,46.60
2023-05-12T00:50:15.389Z,48.70
2023-05-12T00:51:16.275Z,48.50
2023-05-12T00:52:17.328Z,45.40
2023-05-12T00:53:17.721Z,42.80
2023-05-12T00:54:18.605Z,48.80
2023-05-12T00:55:19.495Z,49.50
2023-05-12T00:56:20.430Z,46.90
2023-05-12T00:57:21.318Z,45.10
2023-05-12T00:58:22.193Z,47.90
2023-05-12T00:59:23.105Z,50.60
2023-05-12T01:00:23.990Z,45.90
2023-05-12T01:01:24.924Z,46.40
2023-05-12T01:02:25.873Z,48.60
2023-05-12T01:03:26.789Z,44.80
2023-05-12T01:04:27.646Z,45.10
2023-05-12T01:05:28.602Z,44.40
2023-05-12T01:06:29.496Z,46.10
2023-05-12T01:07:30.396Z,46.10
2023-05-12T01:08:31.275Z,45.70
2023-05-12T01:09:32.162Z,44.10
2023-05-12T01:10:33.068Z,41.00
2023-05-12T01:11:33.986Z,44.60
2023-05-12T01:12:34.865Z,43.70
2023-05-12T01:13:35.754Z,42.90
2023-05-12T01:14:36.989Z,44.80
2023-05-12T01:15:37.456Z,46.20
2023-05-12T01:16:38.309Z,44.70
2023-05-12T01:17:39.470Z,43.50
2023-05-12T01:18:40.030Z,48.40
2023-05-12T01:19:40.910Z,46.20
2023-05-12T01:20:41.808Z,41.50
2023-05-12T01:21:42.686Z,44.90
2023-05-12T01:22:43.615Z,43.90
2023-05-12T01:23:44.490Z,45.60
2023-05-12T01:24:45.414Z,44.20
2023-05-12T01:25:46.310Z,41.80
2023-05-12T01:26:47.209Z,42.80
2023-05-12T01:27:48.104Z,39.30
2023-05-12T01:28:49.017Z,40.30
2023-05-12T01:29:49.929Z,36.50
2023-05-12T01:30:50.856Z,40.80
2023-05-12T01:31:51.747Z,40.40
2023-05-12T01:32:52.665Z,41.80
2023-05-12T01:33:53.554Z,39.20
2023-05-12T01:34:54.455Z,38.50
2023-05-12T01:35:55.352Z,38.20
2023-05-12T01:36:56.225Z,36.80
2023-05-12T01:37:57.186Z,38.40
2023-05-12T01:38:58.077Z,37.30
2023-05-12T01:39:58.964Z,38.20
2023-05-12T01:40:59.838Z,37.20
2023-05-12T01:42:00.720Z,37.30
2023-05-12T01:43:01.629Z,38.10
2023-05-12T01:44:02.517Z,40.80
2023-05-12T01:45:03.417Z,37.10
2023-05-12T01:46:04.358Z,37.80
2023-05-12T01:47:05.242Z,36.20
2023-05-12T01:48:06.184Z,39.10
2023-05-12T01:49:07.041Z,34.60
2023-05-12T01:50:07.766Z,33.00
2023-05-12T01:51:08.727Z,38.10
2023-05-12T01:52:09.622Z,37.90
2023-05-12T01:53:10.553Z,35.10
2023-05-12T01:54:11.417Z,38.00
2023-05-12T01:55:12.307Z,36.60
2023-05-12T01:56:13.200Z,33.40
2023-05-12T01:57:14.106Z,35.10
2023-05-12T01:58:15.006Z,35.00
2023-05-12T01:59:15.892Z,32.10
2023-05-12T02:00:16.819Z,31.10
2023-05-12T02:01:17.751Z,31.20
2023-05-12T02:02:18.645Z,34.00
2023-05-12T02:03:19.677Z,30.60
2023-05-12T02:04:20.088Z,32.80
2023-05-12T02:05:20.965Z,28.30
2023-05-12T02:06:21.882Z,29.00
2023-05-12T02:07:22.753Z,31.10
2023-05-12T02:08:23.679Z,31.00
2023-05-12T02:09:24.551Z,32.50
2023-05-12T02:10:25.446Z,31.60
2023-05-12T02:11:26.350Z,29.00
2023-05-12T02:12:27.232Z,31.50
2023-05-12T02:13:28.119Z,27.10
2023-05-12T02:14:29.017Z,30.20
2023-05-12T02:15:29.925Z,28.70
2023-05-12T02:16:30.863Z,26.10
2023-05-12T02:17:31.739Z,32.30
2023-05-12T02:18:32.713Z,29.10
2023-05-12T02:19:33.556Z,29.70
2023-05-12T02:20:34.459Z,29.60
2023-05-12T02:21:35.349Z,31.20
2023-05-12T02:22:36.265Z,31.20
2023-05-12T02:23:37.293Z,30.80
2023-05-12T02:24:37.693Z,28.90
2023-05-12T02:25:38.632Z,28.30
2023-05-12T02:26:39.513Z,28.40
2023-05-12T02:27:40.409Z,29.00
2023-05-12T02:28:41.295Z,26.10
2023-05-12T02:29:42.215Z,28.60
2023-05-12T02:30:43.086Z,28.60
2023-05-12T02:31:43.992Z,27.20
2023-05-12T02:32:44.921Z,29.30
2023-05-12T02:33:45.817Z,25.40
2023-05-12T02:34:46.747Z,25.60
2023-05-12T02:35:47.609Z,25.50
2023-05-12T02:36:48.490Z,27.40
2023-05-12T02:37:49.380Z,26.90
2023-05-12T02:38:50.347Z,30.50
2023-05-12T02:39:51.215Z,29.40
2023-05-12T02:40:52.121Z,26.10
2023-05-12T02:41:53.027Z,27.70
2023-05-12T02:42:53.913Z,27.40
2023-05-12T02:43:54.821Z,29.90
2023-05-12T02:44:55.726Z,27.50
2023-05-12T02:45:56.625Z,25.60
2023-05-12T02:46:57.508Z,26.10
2023-05-12T02:47:58.459Z,24.70
2023-05-12T02:48:59.378Z,26.20
2023-05-12T02:50:00.287Z,26.40
2023-05-12T02:51:01.148Z,24.70
2023-05-12T02:52:02.048Z,21.30
2023-05-12T02:53:02.962Z,20.80
2023-05-12T02:54:03.854Z,20.40
2023-05-12T02:55:04.724Z,22.50
2023-05-12T02:56:05.625Z,19.20
2023-05-12T02:57:06.520Z,20.30
2023-05-12T02:58:07.421Z,21.30
2023-05-12T02:59:08.318Z,22.40
2023-05-12T03:00:09.212Z,20.30
2023-05-12T03:01:11.562Z,21.00
2023-05-12T03:02:10.893Z,22.40
2023-05-12T03:03:11.418Z,20.60
2023-05-12T03:04:11.830Z,20.50
2023-05-12T03:05:12.718Z,22.20
2023-05-12T03:06:13.765Z,22.70
2023-05-12T03:07:14.170Z,22.30
2023-05-12T03:08:15.063Z,21.20
2023-05-12T03:09:15.973Z,20.20
2023-05-12T03:10:16.976Z,21.30
2023-05-12T03:11:17.403Z,20.30
2023-05-12T03:12:18.305Z,19.90
2023-05-12T03:13:19.226Z,19.50
2023-05-12T03:14:20.103Z,19.00
2023-05-12T03:15:21.000Z,18.70
2023-05-12T03:16:21.930Z,18.40
2023-05-12T03:17:22.932Z,18.90
2023-05-12T03:18:23.385Z,18.20
2023-05-12T03:19:24.253Z,18.40
2023-05-12T03:20:25.131Z,17.20
2023-05-12T03:21:26.045Z,18.30
2023-05-12T03:22:26.949Z,16.80
2023-05-12T03:23:27.831Z,18.50
2023-05-12T03:24:28.754Z,17.00
2023-05-12T03:25:29.640Z,15.70
2023-05-12T03:26:30.555Z,16.90
2023-05-12T03:27:31.435Z,16.80
2023-05-12T03:28:32.340Z,15.80
2023-05-12T03:29:33.205Z,15.30
2023-05-12T03:30:34.151Z,16.80
2023-05-12T03:31:35.051Z,15.50
2023-05-12T03:32:35.938Z,15.00
2023-05-12T03:33:36.802Z,15.70
2023-05-12T03:34:37.731Z,16.90
2023-05-12T03:35:38.679Z,17.40
2023-05-12T03:36:39.535Z,18.60
2023-05-12T03:37:40.458Z,17.00
2023-05-12T03:38:41.373Z,15.60
2023-05-12T03:39:42.262Z,16.90
2023-05-12T03:40:43.147Z,15.40
2023-05-12T03:41:44.032Z,20.00
2023-05-12T03:42:44.988Z,20.70
2023-05-12T03:43:45.842Z,26.10
2023-05-12T03:44:46.731Z,69.40
2023-05-12T03:45:47.626Z,46.00
2023-05-12T03:46:56.197Z,16.50
2023-05-12T03:47:49.286Z,16.40
2023-05-12T03:48:50.054Z,19.50
2023-05-12T03:49:50.941Z,16.80
2023-05-12T03:50:51.824Z,15.50
2023-05-12T03:51:52.697Z,15.70
2023-05-12T03:52:53.581Z,16.90
2023-05-12T03:53:54.500Z,16.90
2023-05-12T03:54:55.416Z,16.50
2023-05-12T03:55:56.274Z,16.90
2023-05-12T03:56:57.160Z,18.00
2023-05-12T03:57:58.068Z,17.10
2023-05-12T03:58:58.996Z,16.50
2023-05-12T03:59:59.979Z,17.90
2023-05-12T04:01:07.912Z,17.70
2023-05-12T04:02:01.334Z,18.40
2023-05-12T04:03:02.307Z,16.90
2023-05-12T04:04:02.807Z,18.00
2023-05-12T04:05:03.686Z,17.40
2023-05-12T04:06:04.566Z,17.50
2023-05-12T04:07:05.490Z,16.50
2023-05-12T04:08:06.411Z,16.50
2023-05-12T04:09:07.269Z,17.90
2023-05-12T04:10:08.248Z,18.20
2023-05-12T04:11:09.070Z,17.20
2023-05-12T04:12:10.002Z,18.00
2023-05-12T04:13:10.887Z,17.40
2023-05-12T04:14:11.778Z,16.60
2023-05-12T04:15:12.649Z,16.70
2023-05-12T04:16:13.632Z,17.30
2023-05-12T04:17:14.522Z,16.90
2023-05-12T04:18:15.413Z,16.40
2023-05-12T04:19:16.290Z,16.20
2023-05-12T04:20:17.237Z,16.50
2023-05-12T04:21:17.715Z,15.40
2023-05-12T04:22:18.603Z,17.90
2023-05-12T04:23:19.585Z,17.90
2023-05-12T04:24:20.437Z,16.80
2023-05-12T04:25:21.350Z,17.60
2023-05-12T04:26:22.264Z,17.70
2023-05-12T04:27:23.138Z,18.00
2023-05-12T04:28:24.033Z,16.40
2023-05-12T04:29:24.932Z,16.10
2023-05-12T04:30:25.857Z,16.50
2023-05-12T04:31:26.780Z,17.80
2023-05-12T04:32:27.659Z,15.70
2023-05-12T04:33:28.539Z,18.00
2023-05-12T04:34:29.438Z,17.00
2023-05-12T04:35:30.343Z,15.80
2023-05-12T04:36:31.220Z,16.90
2023-05-12T04:37:32.119Z,16.30
2023-05-12T04:38:33.019Z,17.40
2023-05-12T04:39:33.903Z,16.40
2023-05-12T04:40:35.200Z,16.90
2023-05-12T04:41:35.633Z,17.30
2023-05-12T04:42:36.558Z,17.30
2023-05-12T04:44:38.310Z,17.70
2023-05-12T04:45:39.218Z,18.30
2023-05-12T04:46:40.182Z,17.30
2023-05-12T04:47:40.624Z,17.00
2023-05-12T04:48:41.488Z,18.10
2023-05-12T04:49:42.414Z,18.80
2023-05-12T04:50:43.327Z,20.80
2023-05-12T04:51:44.222Z,16.10
2023-05-12T04:52:45.106Z,19.20
2023-05-12T04:53:46.009Z,18.60
2023-05-12T04:54:46.911Z,17.90
2023-05-12T04:55:47.820Z,17.20
2023-05-12T04:56:48.691Z,17.30
2023-05-12T04:57:49.593Z,19.20
2023-05-12T04:58:50.497Z,19.80
2023-05-12T04:59:51.394Z,19.50
2023-05-12T05:00:52.314Z,17.70
2023-05-12T05:01:53.238Z,20.10
2023-05-12T05:02:54.304Z,18.20
2023-05-12T05:03:54.936Z,17.40
2023-05-12T05:04:55.362Z,17.70
2023-05-12T05:05:56.260Z,17.80
2023-05-12T05:06:57.148Z,16.80
2023-05-12T05:07:58.051Z,18.00
2023-05-12T05:08:58.949Z,17.70
2023-05-12T05:09:59.889Z,17.40
2023-05-12T05:11:00.776Z,18.50
2023-05-12T05:12:01.637Z,17.10
2023-05-12T05:13:02.545Z,19.10
2023-05-12T05:14:03.426Z,17.50
2023-05-12T05:15:04.314Z,17.80
2023-05-12T05:16:05.282Z,18.40
2023-05-12T05:17:06.245Z,17.40
2023-05-12T05:18:06.794Z,17.10
2023-05-12T05:19:19.519Z,17.10
2023-05-12T05:20:11.624Z,17.70
2023-05-12T05:21:09.522Z,17.50
2023-05-12T05:22:10.054Z,18.10
2023-05-12T05:23:10.481Z,17.10
2023-05-12T05:24:11.368Z,18.20
2023-05-12T05:25:12.253Z,17.20
2023-05-12T05:26:13.221Z,16.80
2023-05-12T05:27:14.146Z,17.20
2023-05-12T05:28:14.998Z,19.30
2023-05-12T05:29:15.887Z,19.40
2023-05-12T05:30:16.790Z,17.70
2023-05-12T05:31:17.698Z,17.80
2023-05-12T05:32:18.580Z,16.40
2023-05-12T05:33:19.468Z,17.60
2023-05-12T05:34:20.410Z,16.70
2023-05-12T05:35:21.539Z,16.20
2023-05-12T05:36:22.069Z,15.90
2023-05-12T05:37:22.985Z,17.10
2023-05-12T05:38:23.865Z,17.30
2023-05-12T05:39:24.752Z,17.20
2023-05-12T05:40:25.640Z,17.10
2023-05-12T05:41:26.604Z,16.20
2023-05-12T05:42:27.450Z,16.30
2023-05-12T05:43:28.323Z,17.70
2023-05-12T05:44:29.205Z,16.90
2023-05-12T05:45:30.092Z,16.20
2023-05-12T05:46:31.056Z,15.10
2023-05-12T05:47:31.989Z,14.90
2023-05-12T05:48:32.877Z,17.40
2023-05-12T05:49:33.766Z,14.80
2023-05-12T05:50:34.670Z,14.60
2023-05-12T05:51:35.607Z,14.80
2023-05-12T05:52:36.479Z,16.10
2023-05-12T05:53:37.366Z,15.90
2023-05-12T05:54:38.297Z,15.20
2023-05-12T05:55:39.194Z,14.30
2023-05-12T05:56:40.110Z,15.90
2023-05-12T05:57:40.970Z,15.40
2023-05-12T05:58:41.852Z,15.60
2023-05-12T05:59:42.758Z,15.60
2023-05-12T06:00:43.651Z,15.80
2023-05-12T06:01:44.542Z,13.70
2023-05-12T06:02:45.491Z,14.50
2023-05-12T06:03:46.442Z,13.80
2023-05-12T06:04:47.349Z,14.60
2023-05-12T06:05:48.264Z,13.80
2023-05-12T06:06:49.141Z,14.50
2023-05-12T06:07:50.032Z,15.00
2023-05-12T06:08:50.912Z,13.40
2023-05-12T06:09:51.825Z,14.20
2023-05-12T06:10:52.708Z,14.50
2023-05-12T06:11:53.613Z,12.70
2023-05-12T06:12:54.475Z,13.40
2023-05-12T06:13:55.381Z,14.70
2023-05-12T06:14:56.297Z,14.80
2023-05-12T06:15:57.174Z,14.40
2023-05-12T06:16:58.096Z,12.40
2023-05-12T06:17:59.040Z,13.50
2023-05-12T06:18:59.997Z,13.10
2023-05-12T06:20:00.859Z,14.10
2023-05-12T06:21:01.760Z,13.50
2023-05-12T06:22:02.631Z,13.40
2023-05-12T06:23:03.514Z,13.30
2023-05-12T06:24:04.439Z,13.00
2023-05-12T06:25:05.305Z,12.20
2023-05-12T06:26:06.190Z,13.60
2023-05-12T06:27:07.111Z,12.10
2023-05-12T06:28:07.989Z,13.40
2023-05-12T06:29:08.892Z,12.60
2023-05-12T06:30:09.788Z,13.10
2023-05-12T06:31:10.665Z,12.60
2023-05-12T06:32:11.656Z,12.20
2023-05-12T06:33:12.072Z,12.50
2023-05-12T06:34:12.956Z,12.90
2023-05-12T06:35:13.839Z,13.40
2023-05-12T06:36:14.766Z,11.80
2023-05-12T06:37:15.699Z,12.00
2023-05-12T06:38:16.604Z,13.30
2023-05-12T06:39:17.487Z,11.40
2023-05-12T06:40:18.376Z,11.10
2023-05-12T06:41:19.257Z,11.50
2023-05-12T06:42:20.203Z,11.20
2023-05-12T06:43:21.051Z,12.50
2023-05-12T06:44:21.933Z,11.60
2023-05-12T06:45:22.972Z,11.40
2023-05-12T06:46:23.435Z,11.00
2023-05-12T06:47:24.321Z,11.70
2023-05-12T06:48:25.189Z,12.40
2023-05-12T06:49:26.081Z,11.30
2023-05-12T06:50:27.020Z,12.10
2023-05-12T06:51:27.938Z,10.50
2023-05-12T06:52:28.836Z,11.00
2023-05-12T06:53:29.732Z,10.60
2023-05-12T06:54:30.615Z,10.30
2023-05-12T06:55:31.497Z,10.70
2023-05-12T06:56:32.404Z,9.90
2023-05-12T06:57:33.426Z,10.90
2023-05-12T06:58:34.274Z,10.20
2023-05-12T06:59:35.155Z,9.70
2023-05-12T07:00:36.079Z,11.00
2023-05-12T07:01:37.010Z,10.90
2023-05-12T07:02:37.912Z,11.40
2023-05-12T07:03:38.904Z,10.10
2023-05-12T07:04:39.287Z,9.70
2023-05-12T07:05:40.221Z,10.10
2023-05-12T07:06:41.094Z,11.60
2023-05-12T07:07:41.978Z,11.00
2023-05-12T07:08:42.854Z,9.40
2023-05-12T07:09:43.745Z,10.80
2023-05-12T07:10:44.642Z,10.30
2023-05-12T07:11:45.552Z,11.80
2023-05-12T07:12:46.433Z,10.10
2023-05-12T07:13:47.302Z,10.00
2023-05-12T07:14:48.207Z,9.40
2023-05-12T07:15:49.162Z,8.70
2023-05-12T07:16:50.012Z,8.10
2023-05-12T07:17:50.923Z,9.80
2023-05-12T07:18:51.841Z,10.90
2023-05-12T07:19:52.768Z,9.50
2023-05-12T07:20:53.744Z,10.60
2023-05-12T07:21:54.154Z,9.00
2023-05-12T07:22:55.029Z,10.10
2023-05-12T07:23:55.933Z,8.40
2023-05-12T07:24:56.936Z,8.50
2023-05-12T07:25:57.344Z,8.50
2023-05-12T07:26:58.229Z,9.40
2023-05-12T07:27:59.149Z,7.90
2023-05-12T07:29:00.034Z,9.60
2023-05-12T07:30:00.918Z,9.80
2023-05-12T07:31:01.839Z,8.90
2023-05-12T07:32:02.689Z,8.60
2023-05-12T07:33:03.634Z,7.70
2023-05-12T07:34:04.535Z,8.40
2023-05-12T07:35:05.418Z,8.40
2023-05-12T07:36:06.299Z,8.90
2023-05-12T07:37:07.201Z,9.10
2023-05-12T07:38:08.103Z,7.40
2023-05-12T07:39:09.015Z,7.30
2023-05-12T07:40:09.911Z,9.60
2023-05-12T07:41:10.780Z,9.50
2023-05-12T07:42:11.665Z,8.00
2023-05-12T07:43:12.604Z,7.60
2023-05-12T07:44:13.470Z,6.80
2023-05-12T07:45:14.369Z,7.70
2023-05-12T07:46:15.243Z,7.60
2023-05-12T07:47:16.197Z,9.30
2023-05-12T07:48:17.069Z,7.70
2023-05-12T07:49:17.963Z,7.40
2023-05-12T07:50:18.831Z,8.90
2023-05-12T07:51:19.720Z,9.70
2023-05-12T07:52:20.626Z,8.10
2023-05-12T07:53:21.520Z,8.20
2023-05-12T07:54:22.413Z,7.20
2023-05-12T07:55:23.457Z,7.60
2023-05-12T07:56:23.933Z,8.20
2023-05-12T07:57:24.842Z,7.40
2023-05-12T07:58:26.073Z,8.70
2023-05-12T07:59:26.415Z,8.00
2023-05-12T08:00:27.303Z,8.30
2023-05-12T08:01:28.218Z,6.20
2023-05-12T08:02:29.154Z,7.60
2023-05-12T08:03:30.078Z,8.50
2023-05-12T08:04:31.038Z,6.80
2023-05-12T08:05:31.883Z,8.40
2023-05-12T08:06:32.794Z,8.10
2023-05-12T08:07:33.713Z,7.00
2023-05-12T08:08:34.634Z,7.20
2023-05-12T08:09:35.504Z,6.70
2023-05-12T08:10:36.406Z,7.70
2023-05-12T08:11:37.308Z,6.30
2023-05-12T08:12:38.192Z,7.00
2023-05-12T08:13:39.127Z,6.50
2023-05-12T08:14:39.980Z,6.80
2023-05-12T08:15:40.891Z,6.30
2023-05-12T08:16:41.797Z,6.00
2023-05-12T08:17:42.660Z,6.80
2023-05-12T08:18:43.550Z,6.40
2023-05-12T08:19:44.432Z,7.70
2023-05-12T08:20:45.333Z,7.40
2023-05-12T08:21:46.213Z,7.30
2023-05-12T08:22:47.105Z,6.10
2023-05-12T08:23:47.991Z,5.20
2023-05-12T08:24:48.894Z,5.80
2023-05-12T08:25:49.807Z,6.90
2023-05-12T08:26:50.696Z,5.90
2023-05-12T08:27:52.486Z,5.70
2023-05-12T08:28:52.521Z,5.80
2023-05-12T08:29:52.901Z,5.70
2023-05-12T08:30:53.805Z,7.20
2023-05-12T08:31:54.695Z,7.20
2023-05-12T08:32:55.579Z,6.20
2023-05-12T08:34:08.953Z,5.10
2023-05-12T08:34:58.259Z,6.50
2023-05-12T08:35:58.142Z,4.80
2023-05-12T08:36:59.024Z,5.20
2023-05-12T08:37:59.926Z,5.70
2023-05-12T08:39:00.815Z,4.70
2023-05-12T08:40:01.696Z,5.00
2023-05-12T08:41:02.591Z,5.20
2023-05-12T08:42:03.479Z,4.10
2023-05-12T08:43:04.388Z,5.90
2023-05-12T08:44:05.494Z,5.90
2023-05-12T08:45:05.826Z,5.60
2023-05-12T08:46:06.720Z,5.40
2023-05-12T08:47:07.601Z,4.60
2023-05-12T08:48:08.518Z,4.80
2023-05-12T08:49:09.389Z,7.80
2023-05-12T08:50:10.284Z,6.10
2023-05-12T08:51:11.154Z,5.90
2023-05-12T08:52:12.039Z,5.20
2023-05-12T08:53:12.945Z,5.80
2023-05-12T08:54:13.826Z,4.50
2023-05-12T08:55:14.716Z,5.60
2023-05-12T08:57:16.559Z,4.30
2023-05-12T08:58:17.049Z,6.40
2023-05-12T08:59:17.998Z,7.30
2023-05-12T09:00:19.083Z,5.60
2023-05-12T09:01:19.668Z,4.30
2023-05-12T09:02:20.705Z,5.30
2023-05-12T09:03:21.626Z,5.30
2023-05-12T09:04:22.576Z,6.10
2023-05-12T09:05:23.591Z,5.20
2023-05-12T09:06:24.094Z,6.50
2023-05-12T09:07:25.007Z,4.10
2023-05-12T09:08:25.899Z,4.60
2023-05-12T09:09:27.503Z,4.90
2023-05-12T09:10:35.074Z,5.30
2023-05-12T09:11:29.176Z,4.00
2023-05-12T09:12:29.053Z,4.90
2023-05-12T09:13:29.936Z,5.20
2023-05-12T09:14:30.994Z,4.60
2023-05-12T09:15:31.324Z,4.30
2023-05-12T09:16:32.375Z,5.20
2023-05-12T09:17:32.778Z,4.70
2023-05-12T09:18:33.695Z,5.10
2023-05-12T09:19:34.545Z,4.10
2023-05-12T09:20:35.477Z,4.10
2023-05-12T09:21:36.360Z,4.10
2023-05-12T09:22:37.251Z,5.00
2023-05-12T09:23:38.134Z,4.80
2023-05-12T09:24:39.036Z,3.80
2023-05-12T09:25:39.924Z,4.40
2023-05-12T09:26:40.816Z,4.20
2023-05-12T09:27:41.693Z,5.90
2023-05-12T09:28:42.581Z,4.10
2023-05-12T09:29:51.763Z,5.30
2023-05-12T09:30:45.312Z,4.40
2023-05-12T09:31:45.217Z,3.40
2023-05-12T09:32:46.074Z,5.80
2023-05-12T09:33:47.051Z,4.80
2023-05-12T09:34:56.525Z,3.90
2023-05-12T09:35:48.890Z,4.40
2023-05-12T09:36:49.791Z,4.30
2023-05-12T09:37:50.677Z,4.00
2023-05-12T09:38:51.569Z,3.80
2023-05-12T09:39:52.565Z,5.90
2023-05-12T09:40:53.415Z,4.30
2023-05-12T09:41:54.296Z,5.30
2023-05-12T09:42:55.178Z,4.50
2023-05-12T09:43:56.089Z,3.80
2023-05-12T09:44:57.041Z,4.20
2023-05-12T09:45:57.930Z,5.30
2023-05-12T09:46:58.796Z,4.40
2023-05-12T09:47:59.755Z,4.40
2023-05-12T09:49:09.606Z,4.40
2023-05-12T09:50:01.532Z,5.60
2023-05-12T09:51:02.405Z,6.00
2023-05-12T09:52:03.295Z,3.00
2023-05-12T09:53:04.182Z,6.00
2023-05-12T09:54:07.152Z,7.70
2023-05-12T09:55:05.707Z,7.90
2023-05-12T09:56:06.595Z,8.00
2023-05-12T09:57:07.488Z,6.80
2023-05-12T09:58:08.395Z,8.40
2023-05-12T09:59:09.291Z,7.70
2023-05-12T10:00:20.218Z,6.90
2023-05-12T10:09:58.068Z,7.10
2023-05-12T10:10:56.961Z,8.50
2023-05-12T10:11:57.853Z,7.90
2023-05-12T10:12:59.506Z,8.20
2023-05-12T10:13:59.448Z,9.00
2023-05-12T10:14:59.912Z,8.30
2023-05-12T10:16:00.888Z,8.70
2023-05-12T10:17:01.777Z,7.60
2023-05-12T10:18:02.693Z,7.80
2023-05-12T10:19:03.585Z,8.40
2023-05-12T10:20:04.442Z,10.30
2023-05-12T10:21:05.325Z,8.10
2023-05-12T10:22:06.238Z,8.30
2023-05-12T10:23:07.125Z,7.70
2023-05-12T10:24:08.015Z,8.90
2023-05-12T10:25:08.945Z,8.70
2023-05-12T10:26:09.852Z,7.20
2023-05-12T10:27:10.795Z,8.80
2023-05-12T10:28:11.705Z,8.90
2023-05-12T10:29:12.699Z,8.60
2023-05-12T10:30:13.102Z,9.20
2023-05-12T10:31:14.130Z,10.20
2023-05-12T10:32:14.971Z,8.60
2023-05-12T10:33:15.891Z,8.30
2023-05-12T10:34:16.816Z,9.10
2023-05-12T10:35:17.754Z,9.90
2023-05-12T10:36:18.714Z,7.70
2023-05-12T10:37:19.599Z,10.00
2023-05-12T10:38:20.490Z,10.00
2023-05-12T10:39:21.380Z,8.80
2023-05-12T10:40:22.411Z,10.00
2023-05-12T10:41:22.846Z,8.60
2023-05-12T10:45:18.803Z,8.40
2023-05-12T10:46:26.986Z,10.30
2023-05-12T10:47:19.897Z,9.60
2023-05-12T10:48:20.388Z,9.50
2023-05-12T10:49:20.883Z,10.50
2023-05-12T10:50:21.786Z,9.70
2023-05-12T10:51:22.679Z,8.90
2023-05-12T10:52:23.552Z,12.00
2023-05-12T10:53:24.450Z,9.60
2023-05-12T10:54:34.303Z,11.30
2023-05-12T10:55:26.481Z,10.20
2023-05-12T10:56:27.148Z,11.30
2023-05-12T10:57:27.939Z,9.30
2023-05-12T10:58:29.083Z,10.50
2023-05-12T10:59:29.645Z,11.00
2023-05-12T11:00:30.427Z,9.80
2023-05-12T11:01:30.803Z,10.10
2023-05-12T11:02:32.546Z,10.40
2023-05-12T11:03:33.362Z,9.60
2023-05-12T11:04:33.886Z,10.40
2023-05-12T11:05:33.920Z,9.50
2023-05-12T11:06:34.551Z,8.90
2023-05-12T11:07:35.543Z,10.60
2023-05-12T11:08:35.982Z,10.70
2023-05-12T11:09:40.243Z,10.50
2023-05-12T11:10:39.000Z,11.10
2023-05-12T11:11:38.420Z,10.80
2023-05-12T11:12:38.876Z,10.60
2023-05-12T11:13:39.825Z,10.70
2023-05-12T11:14:40.718Z,10.00
2023-05-12T11:15:41.600Z,9.70
2023-05-12T11:16:42.684Z,10.40
2023-05-12T11:17:43.148Z,8.60
2023-05-12T11:18:44.071Z,9.70
2023-05-12T11:19:44.950Z,10.40
2023-05-12T11:20:45.836Z,9.20
2023-05-12T11:21:46.756Z,9.10
2023-05-12T11:22:47.654Z,9.80
2023-05-12T11:23:48.537Z,10.10
2023-05-12T11:24:49.452Z,9.20
2023-05-12T11:25:50.356Z,10.90
2023-05-12T11:26:51.217Z,9.90
2023-05-12T11:27:52.110Z,11.60
2023-05-12T11:28:52.989Z,9.80
2023-05-12T11:29:53.871Z,10.00
2023-05-12T11:30:55.656Z,10.20
2023-05-12T11:31:55.833Z,10.80
2023-05-12T11:32:56.745Z,8.70
2023-05-12T11:34:10.841Z,9.50
2023-05-12T11:34:59.402Z,10.10
2023-05-12T11:35:59.310Z,9.70
2023-05-12T11:37:00.218Z,8.70
2023-05-12T11:38:01.098Z,10.50
2023-05-12T11:39:01.976Z,8.50
2023-05-12T11:40:02.918Z,9.80
2023-05-12T11:41:03.834Z,11.00
2023-05-12T11:42:12.137Z,10.60
2023-05-12T11:43:06.473Z,11.00
2023-05-12T11:44:06.379Z,8.10
2023-05-12T11:45:07.346Z,9.10
2023-05-12T11:46:08.243Z,10.30
2023-05-12T11:47:09.257Z,10.10
2023-05-12T11:48:10.199Z,8.50
2023-05-12T11:49:11.240Z,12.30
2023-05-12T11:50:11.614Z,9.20
2023-05-12T11:51:12.501Z,10.10
2023-05-12T11:52:13.384Z,9.60
2023-05-12T11:53:14.285Z,9.40
2023-05-12T11:54:15.189Z,10.10
2023-05-12T11:55:16.198Z,8.60
2023-05-12T11:56:16.627Z,9.20
2023-05-12T11:57:17.503Z,8.20
2023-05-12T11:58:18.427Z,7.10
2023-05-12T11:59:19.401Z,10.70
2023-05-12T12:00:20.435Z,8.20
2023-05-12T12:01:20.835Z,9.00
2023-05-12T12:02:21.793Z,11.90
2023-05-12T12:03:22.799Z,8.00
2023-05-12T12:04:23.219Z,9.90
2023-05-12T12:05:24.115Z,9.30
2023-05-12T12:06:25.003Z,7.60
2023-05-12T12:07:25.890Z,7.80
2023-05-12T12:08:26.817Z,9.90
2023-05-12T12:09:27.728Z,9.90
2023-05-12T12:10:28.609Z,9.00
2023-05-12T12:11:29.496Z,8.20
2023-05-12T12:12:30.397Z,9.60
2023-05-12T12:13:31.330Z,9.00
2023-05-12T12:14:32.206Z,8.70
2023-05-12T12:15:33.098Z,9.00
2023-05-12T12:16:34.014Z,9.40
2023-05-12T12:17:34.912Z,7.40
2023-05-12T12:18:36.081Z,8.80
2023-05-12T12:19:36.527Z,7.80
2023-05-12T12:20:37.462Z,8.10
2023-05-12T12:21:38.421Z,10.40
2023-05-12T12:22:39.306Z,9.70
2023-05-12T12:23:50.350Z,6.70
2023-05-12T12:24:42.019Z,8.40
2023-05-12T12:25:41.925Z,9.30
2023-05-12T12:26:42.912Z,13.40
2023-05-12T12:27:43.804Z,8.50
2023-05-12T12:28:44.738Z,8.80
2023-05-12T12:29:45.630Z,10.20
2023-05-12T12:30:46.562Z,10.00
2023-05-12T12:31:47.425Z,9.00
2023-05-12T12:32:48.418Z,9.60
2023-05-12T12:33:48.990Z,10.80
2023-05-12T12:34:50.759Z,8.90
2023-05-12T12:35:50.644Z,8.80
2023-05-12T12:36:51.588Z,8.20
2023-05-12T12:37:52.495Z,6.40
2023-05-12T12:38:53.374Z,9.10
2023-05-12T12:39:54.260Z,8.20
2023-05-12T12:40:55.141Z,8.70
2023-05-12T12:41:56.054Z,8.40
2023-05-12T12:42:56.945Z,8.30
2023-05-12T12:43:57.844Z,12.00
2023-05-12T12:44:58.733Z,7.90
2023-05-12T12:45:59.609Z,7.40
2023-05-12T12:47:00.610Z,9.70
2023-05-12T12:48:01.500Z,10.30
2023-05-12T12:49:02.366Z,8.60
2023-05-12T12:50:03.261Z,8.90
2023-05-12T12:51:04.158Z,9.80
2023-05-12T12:52:05.083Z,8.80
2023-05-12T12:53:05.968Z,10.00
2023-05-12T12:54:06.860Z,9.00
2023-05-12T12:55:07.743Z,9.60
2023-05-12T12:56:08.677Z,10.30
2023-05-12T12:57:09.572Z,11.20
2023-05-12T12:58:10.460Z,9.20
2023-05-12T12:59:11.363Z,7.90
2023-05-12T13:00:12.252Z,7.40
2023-05-12T13:01:13.306Z,11.20
2023-05-12T13:02:13.843Z,8.80
2023-05-12T13:03:14.826Z,7.70
2023-05-12T13:04:15.187Z,9.20
2023-05-12T13:05:16.181Z,8.80
2023-05-12T13:06:16.881Z,8.60
2023-05-12T13:07:17.267Z,8.50
2023-05-12T13:08:18.149Z,8.60
2023-05-12T13:09:20.156Z,8.50
2023-05-12T13:10:19.708Z,9.10
2023-05-12T13:11:20.144Z,9.00
2023-05-12T13:12:21.064Z,8.50
2023-05-12T13:13:21.921Z,8.70
2023-05-12T13:14:22.820Z,8.40
2023-05-12T13:15:24.176Z,8.10
2023-05-12T13:16:24.260Z,9.30
2023-05-12T13:17:25.139Z,9.90
2023-05-12T13:18:26.119Z,8.70
2023-05-12T13:19:26.999Z,9.00
2023-05-12T13:20:27.953Z,7.90
2023-05-12T13:21:28.833Z,9.90
2023-05-12T13:22:29.720Z,9.10
2023-05-12T13:23:30.631Z,11.20
2023-05-12T13:24:31.553Z,8.40
2023-05-12T13:25:32.431Z,9.90
2023-05-12T13:26:33.319Z,8.90
2023-05-12T13:27:34.257Z,9.60